Terminal Aerodrome Forecast
Issued by NWS

Home | Current Version | Previous Version | Graphics & Text | Print | Product List | Glossary On
Versions: 1 2 3 4 5 6 7 8 9 10 11 12 13 14 15 16 17 18 19 20 21 22 23 24 25 26
566
FTUS43 KGRB 181134
TAFATW
TAF
KATW 181134Z 1812/1912 20010KT P6SM SKC WS020/23040KT
     FM181500 21016G23KT P6SM SKC
     FM182300 22012G18KT P6SM SCT250 WS020/25045KT
     FM190400 24010KT P6SM SCT250 WS020/25050KT
     FM190700 27007KT P6SM SKC=

USA.gov is the U.S. government's official web portal to all federal, state and local government web resources and services.